sensor_id;sensor_type;location;lat;lon;timestamp;P1;durP1;ratioP1;P2;durP2;ratioP2
2934;SDS011;2462;51.456;7.248;2022-10-16T00:00:56;4.55;;;2.78;;
2934;SDS011;2462;51.456;7.248;2022-10-16T00:03:22;3.88;;;2.20;;
2934;SDS011;2462;51.456;7.248;2022-10-16T00:05:48;4.10;;;2.80;;
2934;SDS011;2462;51.456;7.248;2022-10-16T00:08:14;5.30;;;2.60;;
2934;SDS011;2462;51.456;7.248;2022-10-16T00:10:39;3.30;;;2.50;;
2934;SDS011;2462;51.456;7.248;2022-10-16T00:13:05;5.47;;;2.30;;
2934;SDS011;2462;51.456;7.248;2022-10-16T00:15:37;5.53;;;2.60;;
2934;SDS011;2462;51.456;7.248;2022-10-16T00:18:04;5.15;;;2.53;;
2934;SDS011;2462;51.456;7.248;2022-10-16T00:20:30;3.97;;;2.67;;
2934;SDS011;2462;51.456;7.248;2022-10-16T00:22:58;7.50;;;2.25;;
2934;SDS011;2462;51.456;7.248;2022-10-16T00:25:24;5.00;;;2.50;;
2934;SDS011;2462;51.456;7.248;2022-10-16T00:27:49;5.47;;;2.40;;
2934;SDS011;2462;51.456;7.248;2022-10-16T00:30:15;6.33;;;2.80;;
2934;SDS011;2462;51.456;7.248;2022-10-16T00:32:40;4.27;;;2.30;;
2934;SDS011;2462;51.456;7.248;2022-10-16T00:35:06;6.23;;;2.20;;
2934;SDS011;2462;51.456;7.248;2022-10-16T00:37:31;5.97;;;2.20;;
2934;SDS011;2462;51.456;7.248;2022-10-16T00:39:57;3.50;;;2.23;;
2934;SDS011;2462;51.456;7.248;2022-10-16T00:42:23;4.20;;;2.20;;
2934;SDS011;2462;51.456;7.248;2022-10-16T00:44:50;3.60;;;2.00;;
2934;SDS011;2462;51.456;7.248;2022-10-16T00:47:27;2.55;;;1.90;;
2934;SDS011;2462;51.456;7.248;2022-10-16T00:50:38;4.57;;;2.05;;
2934;SDS011;2462;51.456;7.248;2022-10-16T00:52:59;3.90;;;2.20;;
2934;SDS011;2462;51.456;7.248;2022-10-16T00:55:26;2.70;;;1.85;;
2934;SDS011;2462;51.456;7.248;2022-10-16T00:57:54;3.55;;;1.98;;
2934;SDS011;2462;51.456;7.248;2022-10-16T01:00:22;3.75;;;2.30;;
2934;SDS011;2462;51.456;7.248;2022-10-16T01:02:53;2.30;;;2.10;;
2934;SDS011;2462;51.456;7.248;2022-10-16T01:05:24;2.80;;;2.20;;
2934;SDS011;2462;51.456;7.248;2022-10-16T01:08:17;2.88;;;1.98;;
2934;SDS011;2462;51.456;7.248;2022-10-16T01:10:59;3.03;;;1.77;;
2934;SDS011;2462;51.456;7.248;2022-10-16T01:13:46;3.20;;;2.03;;
2934;SDS011;2462;51.456;7.248;2022-10-16T01:16:24;3.90;;;2.03;;
2934;SDS011;2462;51.456;7.248;2022-10-16T01:19:05;2.70;;;1.98;;
2934;SDS011;2462;51.456;7.248;2022-10-16T01:21:45;2.70;;;1.90;;
2934;SDS011;2462;51.456;7.248;2022-10-16T01:32:11;4.43;;;2.20;;
2934;SDS011;2462;51.456;7.248;2022-10-16T01:34:48;2.77;;;2.00;;
2934;SDS011;2462;51.456;7.248;2022-10-16T01:37:22;4.40;;;2.20;;
2934;SDS011;2462;51.456;7.248;2022-10-16T01:39:58;2.80;;;1.83;;
2934;SDS011;2462;51.456;7.248;2022-10-16T01:42:27;3.25;;;1.90;;
2934;SDS011;2462;51.456;7.248;2022-10-16T01:44:59;5.25;;;1.90;;
2934;SDS011;2462;51.456;7.248;2022-10-16T01:47:31;2.40;;;1.73;;
2934;SDS011;2462;51.456;7.248;2022-10-16T01:49:57;6.82;;;1.90;;
2934;SDS011;2462;51.456;7.248;2022-10-16T01:52:25;2.70;;;1.90;;
2934;SDS011;2462;51.456;7.248;2022-10-16T01:54:54;2.83;;;1.93;;
2934;SDS011;2462;51.456;7.248;2022-10-16T01:57:21;4.03;;;1.90;;
2934;SDS011;2462;51.456;7.248;2022-10-16T01:59:50;5.30;;;2.20;;
2934;SDS011;2462;51.456;7.248;2022-10-16T02:02:19;3.90;;;1.60;;
2934;SDS011;2462;51.456;7.248;2022-10-16T02:04:48;3.95;;;2.00;;
2934;SDS011;2462;51.456;7.248;2022-10-16T02:07:19;2.78;;;1.80;;
2934;SDS011;2462;51.456;7.248;2022-10-16T02:09:45;2.47;;;1.90;;
2934;SDS011;2462;51.456;7.248;2022-10-16T02:14:50;2.40;;;1.60;;
2934;SDS011;2462;51.456;7.248;2022-10-16T02:17:19;3.10;;;2.00;;
2934;SDS011;2462;51.456;7.248;2022-10-16T02:19:46;4.20;;;1.80;;
2934;SDS011;2462;51.456;7.248;2022-10-16T02:22:19;3.80;;;1.70;;
2934;SDS011;2462;51.456;7.248;2022-10-16T02:25:11;3.25;;;1.90;;
2934;SDS011;2462;51.456;7.248;2022-10-16T02:33:09;2.60;;;1.80;;
2934;SDS011;2462;51.456;7.248;2022-10-16T02:35:38;2.35;;;1.65;;
2934;SDS011;2462;51.456;7.248;2022-10-16T02:38:04;2.90;;;1.45;;
2934;SDS011;2462;51.456;7.248;2022-10-16T02:40:31;3.78;;;1.60;;
2934;SDS011;2462;51.456;7.248;2022-10-16T02:42:56;5.40;;;1.70;;
2934;SDS011;2462;51.456;7.248;2022-10-16T02:45:22;3.13;;;1.40;;
2934;SDS011;2462;51.456;7.248;2022-10-16T02:47:48;3.03;;;1.60;;
2934;SDS011;2462;51.456;7.248;2022-10-16T02:50:14;2.60;;;1.60;;
2934;SDS011;2462;51.456;7.248;2022-10-16T02:52:40;2.70;;;1.50;;
2934;SDS011;2462;51.456;7.248;2022-10-16T02:55:06;2.13;;;1.43;;
2934;SDS011;2462;51.456;7.248;2022-10-16T02:57:32;3.80;;;1.40;;
2934;SDS011;2462;51.456;7.248;2022-10-16T02:59:57;2.40;;;1.40;;
2934;SDS011;2462;51.456;7.248;2022-10-16T03:02:23;2.10;;;1.50;;
2934;SDS011;2462;51.456;7.248;2022-10-16T03:04:49;2.93;;;1.50;;
2934;SDS011;2462;51.456;7.248;2022-10-16T03:07:15;1.90;;;1.40;;
2934;SDS011;2462;51.456;7.248;2022-10-16T03:09:40;2.00;;;1.60;;
2934;SDS011;2462;51.456;7.248;2022-10-16T03:12:06;1.88;;;1.30;;
2934;SDS011;2462;51.456;7.248;2022-10-16T03:14:32;1.67;;;1.20;;
2934;SDS011;2462;51.456;7.248;2022-10-16T03:16:57;1.80;;;1.30;;
2934;SDS011;2462;51.456;7.248;2022-10-16T03:19:23;2.28;;;1.10;;
2934;SDS011;2462;51.456;7.248;2022-10-16T03:21:49;2.40;;;1.40;;
2934;SDS011;2462;51.456;7.248;2022-10-16T03:24:14;1.90;;;1.20;;
2934;SDS011;2462;51.456;7.248;2022-10-16T03:26:40;2.00;;;1.80;;
2934;SDS011;2462;51.456;7.248;2022-10-16T03:29:06;2.30;;;1.20;;
2934;SDS011;2462;51.456;7.248;2022-10-16T03:31:31;2.07;;;1.20;;
2934;SDS011;2462;51.456;7.248;2022-10-16T03:33:57;2.00;;;1.27;;
2934;SDS011;2462;51.456;7.248;2022-10-16T03:36:23;2.00;;;1.40;;
2934;SDS011;2462;51.456;7.248;2022-10-16T03:38:48;3.63;;;1.30;;
2934;SDS011;2462;51.456;7.248;2022-10-16T03:41:14;1.90;;;1.10;;
2934;SDS011;2462;51.456;7.248;2022-10-16T03:43:39;1.38;;;1.20;;
2934;SDS011;2462;51.456;7.248;2022-10-16T03:46:05;2.20;;;1.30;;
2934;SDS011;2462;51.456;7.248;2022-10-16T03:48:31;1.30;;;1.10;;
2934;SDS011;2462;51.456;7.248;2022-10-16T03:50:57;2.15;;;1.40;;
2934;SDS011;2462;51.456;7.248;2022-10-16T03:53:22;1.98;;;1.10;;
2934;SDS011;2462;51.456;7.248;2022-10-16T03:55:48;1.88;;;1.00;;
2934;SDS011;2462;51.456;7.248;2022-10-16T03:58:14;3.13;;;1.00;;
2934;SDS011;2462;51.456;7.248;2022-10-16T04:00:40;1.80;;;0.90;;
2934;SDS011;2462;51.456;7.248;2022-10-16T04:03:09;2.72;;;1.10;;
2934;SDS011;2462;51.456;7.248;2022-10-16T04:05:35;3.05;;;1.30;;
2934;SDS011;2462;51.456;7.248;2022-10-16T04:08:00;2.63;;;1.10;;
2934;SDS011;2462;51.456;7.248;2022-10-16T04:10:26;2.97;;;1.08;;
2934;SDS011;2462;51.456;7.248;2022-10-16T04:12:52;1.60;;;1.00;;
2934;SDS011;2462;51.456;7.248;2022-10-16T04:15:22;2.10;;;1.00;;
2934;SDS011;2462;51.456;7.248;2022-10-16T04:20:16;1.90;;;1.00;;
2934;SDS011;2462;51.456;7.248;2022-10-16T04:22:41;1.50;;;0.93;;
2934;SDS011;2462;51.456;7.248;2022-10-16T04:25:07;1.70;;;1.10;;
2934;SDS011;2462;51.456;7.248;2022-10-16T04:27:33;2.50;;;1.10;;
2934;SDS011;2462;51.456;7.248;2022-10-16T04:29:59;2.60;;;1.20;;
2934;SDS011;2462;51.456;7.248;2022-10-16T04:32:25;2.80;;;1.23;;
2934;SDS011;2462;51.456;7.248;2022-10-16T04:34:50;1.63;;;0.95;;
2934;SDS011;2462;51.456;7.248;2022-10-16T04:37:16;1.30;;;1.00;;
2934;SDS011;2462;51.456;7.248;2022-10-16T04:39:42;1.90;;;1.10;;
2934;SDS011;2462;51.456;7.248;2022-10-16T04:42:07;1.90;;;1.20;;
2934;SDS011;2462;51.456;7.248;2022-10-16T04:44:33;4.40;;;1.40;;
2934;SDS011;2462;51.456;7.248;2022-10-16T04:46:58;1.50;;;1.08;;
2934;SDS011;2462;51.456;7.248;2022-10-16T04:49:24;1.63;;;1.13;;
2934;SDS011;2462;51.456;7.248;2022-10-16T04:51:49;2.00;;;1.10;;
2934;SDS011;2462;51.456;7.248;2022-10-16T04:54:15;1.50;;;1.00;;
2934;SDS011;2462;51.456;7.248;2022-10-16T04:56:40;1.33;;;1.00;;
2934;SDS011;2462;51.456;7.248;2022-10-16T04:59:11;3.65;;;1.30;;
2934;SDS011;2462;51.456;7.248;2022-10-16T05:01:40;3.35;;;1.13;;
2934;SDS011;2462;51.456;7.248;2022-10-16T05:04:06;1.58;;;1.20;;
2934;SDS011;2462;51.456;7.248;2022-10-16T05:06:31;2.60;;;1.30;;
2934;SDS011;2462;51.456;7.248;2022-10-16T05:12:19;3.75;;;1.10;;
2934;SDS011;2462;51.456;7.248;2022-10-16T05:14:45;2.10;;;1.20;;
2934;SDS011;2462;51.456;7.248;2022-10-16T05:17:10;2.80;;;1.30;;
2934;SDS011;2462;51.456;7.248;2022-10-16T05:19:36;2.95;;;1.30;;
2934;SDS011;2462;51.456;7.248;2022-10-16T05:22:01;1.83;;;1.27;;
2934;SDS011;2462;51.456;7.248;2022-10-16T05:24:27;1.60;;;1.10;;
2934;SDS011;2462;51.456;7.248;2022-10-16T05:26:52;1.80;;;1.20;;
2934;SDS011;2462;51.456;7.248;2022-10-16T05:29:18;3.30;;;1.20;;
2934;SDS011;2462;51.456;7.248;2022-10-16T05:31:44;1.37;;;1.13;;
2934;SDS011;2462;51.456;7.248;2022-10-16T05:34:10;2.60;;;1.30;;
2934;SDS011;2462;51.456;7.248;2022-10-16T05:36:35;7.73;;;2.20;;
2934;SDS011;2462;51.456;7.248;2022-10-16T05:39:01;2.70;;;1.10;;
2934;SDS011;2462;51.456;7.248;2022-10-16T05:41:27;2.33;;;1.00;;
2934;SDS011;2462;51.456;7.248;2022-10-16T05:43:53;1.80;;;1.40;;
2934;SDS011;2462;51.456;7.248;2022-10-16T05:46:18;1.80;;;1.20;;
2934;SDS011;2462;51.456;7.248;2022-10-16T05:48:44;2.40;;;1.40;;
2934;SDS011;2462;51.456;7.248;2022-10-16T05:51:11;2.85;;;1.20;;
2934;SDS011;2462;51.456;7.248;2022-10-16T05:53:38;2.65;;;1.40;;
2934;SDS011;2462;51.456;7.248;2022-10-16T05:56:06;2.42;;;1.30;;
2934;SDS011;2462;51.456;7.248;2022-10-16T05:58:33;3.30;;;1.50;;
2934;SDS011;2462;51.456;7.248;2022-10-16T06:01:04;3.22;;;1.20;;
2934;SDS011;2462;51.456;7.248;2022-10-16T06:03:32;2.40;;;1.50;;
2934;SDS011;2462;51.456;7.248;2022-10-16T06:05:58;2.10;;;1.25;;
2934;SDS011;2462;51.456;7.248;2022-10-16T06:08:24;4.37;;;1.30;;
2934;SDS011;2462;51.456;7.248;2022-10-16T06:11:00;2.27;;;1.40;;
2934;SDS011;2462;51.456;7.248;2022-10-16T06:13:27;2.90;;;1.30;;
2934;SDS011;2462;51.456;7.248;2022-10-16T06:15:52;3.10;;;1.10;;
2934;SDS011;2462;51.456;7.248;2022-10-16T06:18:18;2.60;;;1.37;;
2934;SDS011;2462;51.456;7.248;2022-10-16T06:20:43;1.50;;;1.20;;
2934;SDS011;2462;51.456;7.248;2022-10-16T06:23:09;2.10;;;1.20;;
2934;SDS011;2462;51.456;7.248;2022-10-16T06:25:34;1.80;;;1.27;;
2934;SDS011;2462;51.456;7.248;2022-10-16T06:28:00;3.70;;;1.50;;
2934;SDS011;2462;51.456;7.248;2022-10-16T06:30:25;2.80;;;1.40;;
2934;SDS011;2462;51.456;7.248;2022-10-16T06:32:51;2.22;;;1.20;;
2934;SDS011;2462;51.456;7.248;2022-10-16T06:35:16;3.30;;;1.40;;
2934;SDS011;2462;51.456;7.248;2022-10-16T06:37:42;2.40;;;1.30;;
2934;SDS011;2462;51.456;7.248;2022-10-16T06:40:07;1.87;;;1.40;;
2934;SDS011;2462;51.456;7.248;2022-10-16T06:42:33;2.63;;;1.47;;
2934;SDS011;2462;51.456;7.248;2022-10-16T06:44:58;3.60;;;1.50;;
2934;SDS011;2462;51.456;7.248;2022-10-16T06:47:24;1.80;;;1.40;;
2934;SDS011;2462;51.456;7.248;2022-10-16T06:49:50;3.58;;;1.40;;
2934;SDS011;2462;51.456;7.248;2022-10-16T06:52:15;2.10;;;1.40;;
2934;SDS011;2462;51.456;7.248;2022-10-16T06:54:40;1.60;;;1.40;;
2934;SDS011;2462;51.456;7.248;2022-10-16T06:57:06;1.80;;;1.30;;
2934;SDS011;2462;51.456;7.248;2022-10-16T06:59:31;4.40;;;1.40;;
2934;SDS011;2462;51.456;7.248;2022-10-16T07:01:57;2.22;;;1.42;;
2934;SDS011;2462;51.456;7.248;2022-10-16T07:04:23;3.67;;;1.42;;
2934;SDS011;2462;51.456;7.248;2022-10-16T07:06:48;2.97;;;1.40;;
2934;SDS011;2462;51.456;7.248;2022-10-16T07:09:14;3.50;;;1.50;;
2934;SDS011;2462;51.456;7.248;2022-10-16T07:11:40;2.20;;;1.47;;
2934;SDS011;2462;51.456;7.248;2022-10-16T07:14:15;1.63;;;1.33;;
2934;SDS011;2462;51.456;7.248;2022-10-16T07:16:42;2.25;;;1.67;;
2934;SDS011;2462;51.456;7.248;2022-10-16T07:19:08;1.90;;;1.50;;
2934;SDS011;2462;51.456;7.248;2022-10-16T07:21:34;1.83;;;1.25;;
2934;SDS011;2462;51.456;7.248;2022-10-16T07:24:00;2.90;;;1.50;;
2934;SDS011;2462;51.456;7.248;2022-10-16T07:26:27;3.33;;;1.60;;
2934;SDS011;2462;51.456;7.248;2022-10-16T07:28:54;2.40;;;1.80;;
2934;SDS011;2462;51.456;7.248;2022-10-16T07:31:22;2.67;;;1.58;;
2934;SDS011;2462;51.456;7.248;2022-10-16T07:33:48;2.93;;;1.50;;
2934;SDS011;2462;51.456;7.248;2022-10-16T07:36:17;2.58;;;1.70;;
2934;SDS011;2462;51.456;7.248;2022-10-16T07:38:44;5.35;;;1.70;;
2934;SDS011;2462;51.456;7.248;2022-10-16T07:41:14;3.35;;;1.70;;
2934;SDS011;2462;51.456;7.248;2022-10-16T07:43:48;4.40;;;1.70;;
2934;SDS011;2462;51.456;7.248;2022-10-16T07:46:15;3.70;;;1.70;;
2934;SDS011;2462;51.456;7.248;2022-10-16T07:48:41;3.10;;;1.70;;
2934;SDS011;2462;51.456;7.248;2022-10-16T07:51:10;5.60;;;1.70;;
2934;SDS011;2462;51.456;7.248;2022-10-16T07:53:37;3.55;;;1.70;;
2934;SDS011;2462;51.456;7.248;2022-10-16T07:56:06;2.13;;;1.70;;
2934;SDS011;2462;51.456;7.248;2022-10-16T07:58:33;2.85;;;1.67;;
2934;SDS011;2462;51.456;7.248;2022-10-16T08:01:05;3.05;;;1.70;;
2934;SDS011;2462;51.456;7.248;2022-10-16T08:03:33;3.60;;;1.50;;
2934;SDS011;2462;51.456;7.248;2022-10-16T08:05:59;2.10;;;1.40;;
2934;SDS011;2462;51.456;7.248;2022-10-16T08:08:25;3.00;;;1.70;;
2934;SDS011;2462;51.456;7.248;2022-10-16T08:10:51;2.08;;;1.50;;
2934;SDS011;2462;51.456;7.248;2022-10-16T08:13:17;2.25;;;1.55;;
2934;SDS011;2462;51.456;7.248;2022-10-16T08:15:43;5.40;;;1.80;;
2934;SDS011;2462;51.456;7.248;2022-10-16T08:18:09;1.85;;;1.40;;
2934;SDS011;2462;51.456;7.248;2022-10-16T08:20:36;2.08;;;1.80;;
2934;SDS011;2462;51.456;7.248;2022-10-16T08:23:02;2.70;;;1.80;;
2934;SDS011;2462;51.456;7.248;2022-10-16T08:25:28;2.40;;;1.80;;
2934;SDS011;2462;51.456;7.248;2022-10-16T08:27:54;2.95;;;1.77;;
2934;SDS011;2462;51.456;7.248;2022-10-16T08:30:20;3.28;;;2.10;;
2934;SDS011;2462;51.456;7.248;2022-10-16T08:32:48;5.30;;;1.80;;
2934;SDS011;2462;51.456;7.248;2022-10-16T08:35:13;6.30;;;1.50;;
2934;SDS011;2462;51.456;7.248;2022-10-16T08:37:40;3.10;;;1.60;;
2934;SDS011;2462;51.456;7.248;2022-10-16T08:40:07;4.00;;;1.45;;
2934;SDS011;2462;51.456;7.248;2022-10-16T08:48:35;4.85;;;1.50;;
2934;SDS011;2462;51.456;7.248;2022-10-16T08:51:11;3.35;;;1.60;;
2934;SDS011;2462;51.456;7.248;2022-10-16T08:56:26;2.53;;;1.50;;
2934;SDS011;2462;51.456;7.248;2022-10-16T08:58:52;3.47;;;1.40;;
2934;SDS011;2462;51.456;7.248;2022-10-16T09:01:20;3.45;;;1.50;;
2934;SDS011;2462;51.456;7.248;2022-10-16T09:06:38;1.55;;;1.20;;
2934;SDS011;2462;51.456;7.248;2022-10-16T09:12:22;3.90;;;1.23;;
2934;SDS011;2462;51.456;7.248;2022-10-16T09:17:34;3.90;;;1.27;;
2934;SDS011;2462;51.456;7.248;2022-10-16T09:22:44;1.77;;;1.10;;
2934;SDS011;2462;51.456;7.248;2022-10-16T09:25:17;2.40;;;1.10;;
2934;SDS011;2462;51.456;7.248;2022-10-16T09:27:47;4.28;;;1.38;;
2934;SDS011;2462;51.456;7.248;2022-10-16T09:30:21;4.00;;;1.50;;
2934;SDS011;2462;51.456;7.248;2022-10-16T09:32:49;2.80;;;1.50;;
2934;SDS011;2462;51.456;7.248;2022-10-16T09:35:19;3.13;;;1.20;;
2934;SDS011;2462;51.456;7.248;2022-10-16T09:37:49;3.50;;;1.40;;
2934;SDS011;2462;51.456;7.248;2022-10-16T09:40:26;5.43;;;1.25;;
2934;SDS011;2462;51.456;7.248;2022-10-16T09:45:52;3.05;;;1.20;;
2934;SDS011;2462;51.456;7.248;2022-10-16T09:48:49;2.92;;;1.27;;
2934;SDS011;2462;51.456;7.248;2022-10-16T09:51:20;3.55;;;1.13;;
2934;SDS011;2462;51.456;7.248;2022-10-16T09:53:53;3.10;;;1.33;;
2934;SDS011;2462;51.456;7.248;2022-10-16T09:56:27;2.90;;;1.50;;
2934;SDS011;2462;51.456;7.248;2022-10-16T09:58:59;2.38;;;1.30;;
2934;SDS011;2462;51.456;7.248;2022-10-16T10:01:32;3.90;;;1.17;;
2934;SDS011;2462;51.456;7.248;2022-10-16T10:04:05;3.38;;;1.10;;
2934;SDS011;2462;51.456;7.248;2022-10-16T10:09:19;3.55;;;1.50;;
2934;SDS011;2462;51.456;7.248;2022-10-16T10:11:49;3.47;;;1.40;;
2934;SDS011;2462;51.456;7.248;2022-10-16T10:17:06;2.65;;;1.35;;
2934;SDS011;2462;51.456;7.248;2022-10-16T10:36:02;5.10;;;1.60;;
2934;SDS011;2462;51.456;7.248;2022-10-16T10:41:02;2.37;;;1.27;;
2934;SDS011;2462;51.456;7.248;2022-10-16T10:43:44;3.70;;;1.40;;
2934;SDS011;2462;51.456;7.248;2022-10-16T10:46:23;4.15;;;1.30;;
2934;SDS011;2462;51.456;7.248;2022-10-16T10:59:54;2.38;;;0.80;;
2934;SDS011;2462;51.456;7.248;2022-10-16T11:11:00;2.92;;;0.82;;
2934;SDS011;2462;51.456;7.248;2022-10-16T11:13:36;2.50;;;0.80;;
2934;SDS011;2462;51.456;7.248;2022-10-16T11:16:26;3.70;;;1.20;;
2934;SDS011;2462;51.456;7.248;2022-10-16T11:19:28;2.22;;;0.80;;
2934;SDS011;2462;51.456;7.248;2022-10-16T11:22:11;3.42;;;0.90;;
2934;SDS011;2462;51.456;7.248;2022-10-16T11:35:37;3.70;;;1.00;;
2934;SDS011;2462;51.456;7.248;2022-10-16T11:38:14;2.10;;;0.90;;
2934;SDS011;2462;51.456;7.248;2022-10-16T11:40:51;2.40;;;1.00;;
2934;SDS011;2462;51.456;7.248;2022-10-16T11:43:31;3.08;;;1.00;;
2934;SDS011;2462;51.456;7.248;2022-10-16T11:46:04;2.50;;;0.90;;
2934;SDS011;2462;51.456;7.248;2022-10-16T11:48:39;2.60;;;0.80;;
2934;SDS011;2462;51.456;7.248;2022-10-16T11:51:21;4.22;;;1.00;;
2934;SDS011;2462;51.456;7.248;2022-10-16T11:54:01;3.13;;;1.13;;
2934;SDS011;2462;51.456;7.248;2022-10-16T11:56:47;2.42;;;1.10;;
2934;SDS011;2462;51.456;7.248;2022-10-16T12:02:13;2.53;;;0.90;;
2934;SDS011;2462;51.456;7.248;2022-10-16T12:05:01;2.10;;;1.05;;
2934;SDS011;2462;51.456;7.248;2022-10-16T12:07:32;3.70;;;1.00;;
2934;SDS011;2462;51.456;7.248;2022-10-16T12:10:10;4.97;;;1.00;;
2934;SDS011;2462;51.456;7.248;2022-10-16T12:12:50;5.25;;;1.00;;
2934;SDS011;2462;51.456;7.248;2022-10-16T12:17:46;3.73;;;0.90;;
2934;SDS011;2462;51.456;7.248;2022-10-16T12:22:41;1.77;;;0.90;;
2934;SDS011;2462;51.456;7.248;2022-10-16T12:25:20;4.40;;;1.50;;
2934;SDS011;2462;51.456;7.248;2022-10-16T12:27:57;3.20;;;1.00;;
2934;SDS011;2462;51.456;7.248;2022-10-16T12:30:43;2.80;;;0.80;;
2934;SDS011;2462;51.456;7.248;2022-10-16T12:33:54;2.42;;;0.80;;
2934;SDS011;2462;51.456;7.248;2022-10-16T12:36:39;2.17;;;0.90;;
2934;SDS011;2462;51.456;7.248;2022-10-16T12:39:04;4.25;;;1.02;;
2934;SDS011;2462;51.456;7.248;2022-10-16T12:41:31;1.55;;;0.80;;
2934;SDS011;2462;51.456;7.248;2022-10-16T12:44:00;3.28;;;0.95;;
2934;SDS011;2462;51.456;7.248;2022-10-16T12:51:38;2.00;;;0.90;;
2934;SDS011;2462;51.456;7.248;2022-10-16T13:02:06;4.38;;;1.30;;
2934;SDS011;2462;51.456;7.248;2022-10-16T13:07:32;2.13;;;0.80;;
2934;SDS011;2462;51.456;7.248;2022-10-16T13:10:14;4.10;;;1.00;;
2934;SDS011;2462;51.456;7.248;2022-10-16T13:15:47;2.45;;;0.80;;
2934;SDS011;2462;51.456;7.248;2022-10-16T13:21:18;3.55;;;1.00;;
2934;SDS011;2462;51.456;7.248;2022-10-16T13:26:49;2.35;;;1.10;;
2934;SDS011;2462;51.456;7.248;2022-10-16T13:29:21;3.38;;;1.00;;
2934;SDS011;2462;51.456;7.248;2022-10-16T13:31:47;2.90;;;1.00;;
2934;SDS011;2462;51.456;7.248;2022-10-16T13:34:22;2.50;;;0.95;;
2934;SDS011;2462;51.456;7.248;2022-10-16T13:36:49;2.70;;;0.80;;
2934;SDS011;2462;51.456;7.248;2022-10-16T13:39:26;2.20;;;0.90;;
2934;SDS011;2462;51.456;7.248;2022-10-16T13:44:42;1.80;;;0.90;;
2934;SDS011;2462;51.456;7.248;2022-10-16T13:47:15;1.50;;;0.80;;
2934;SDS011;2462;51.456;7.248;2022-10-16T13:49:45;2.70;;;1.00;;
2934;SDS011;2462;51.456;7.248;2022-10-16T13:52:17;2.20;;;0.80;;
2934;SDS011;2462;51.456;7.248;2022-10-16T13:54:44;2.95;;;1.15;;
2934;SDS011;2462;51.456;7.248;2022-10-16T13:57:14;2.00;;;1.08;;
2934;SDS011;2462;51.456;7.248;2022-10-16T13:59:40;2.05;;;1.00;;
2934;SDS011;2462;51.456;7.248;2022-10-16T14:05:02;1.85;;;1.00;;
2934;SDS011;2462;51.456;7.248;2022-10-16T14:07:30;2.50;;;0.90;;
2934;SDS011;2462;51.456;7.248;2022-10-16T14:10:00;1.90;;;1.10;;
2934;SDS011;2462;51.456;7.248;2022-10-16T14:12:31;2.28;;;1.00;;
2934;SDS011;2462;51.456;7.248;2022-10-16T14:14:57;1.90;;;1.00;;
2934;SDS011;2462;51.456;7.248;2022-10-16T14:19:56;2.25;;;1.00;;
2934;SDS011;2462;51.456;7.248;2022-10-16T14:22:33;3.80;;;1.00;;
2934;SDS011;2462;51.456;7.248;2022-10-16T14:25:46;2.08;;;1.27;;
2934;SDS011;2462;51.456;7.248;2022-10-16T14:27:58;2.65;;;1.00;;
2934;SDS011;2462;51.456;7.248;2022-10-16T14:30:26;6.23;;;1.20;;
2934;SDS011;2462;51.456;7.248;2022-10-16T14:32:53;1.70;;;1.10;;
2934;SDS011;2462;51.456;7.248;2022-10-16T14:35:37;2.07;;;1.10;;
2934;SDS011;2462;51.456;7.248;2022-10-16T14:38:04;2.50;;;1.00;;
2934;SDS011;2462;51.456;7.248;2022-10-16T14:40:33;2.40;;;1.10;;
2934;SDS011;2462;51.456;7.248;2022-10-16T14:43:01;2.88;;;1.10;;
2934;SDS011;2462;51.456;7.248;2022-10-16T14:45:28;2.80;;;1.00;;
2934;SDS011;2462;51.456;7.248;2022-10-16T14:47:57;3.40;;;1.00;;
2934;SDS011;2462;51.456;7.248;2022-10-16T14:50:42;2.50;;;1.00;;
2934;SDS011;2462;51.456;7.248;2022-10-16T14:53:10;2.50;;;1.00;;
2934;SDS011;2462;51.456;7.248;2022-10-16T14:55:37;2.00;;;1.00;;
2934;SDS011;2462;51.456;7.248;2022-10-16T14:58:03;1.80;;;1.00;;
2934;SDS011;2462;51.456;7.248;2022-10-16T15:00:29;3.30;;;1.20;;
2934;SDS011;2462;51.456;7.248;2022-10-16T15:02:54;3.00;;;1.00;;
2934;SDS011;2462;51.456;7.248;2022-10-16T15:05:24;1.40;;;1.00;;
2934;SDS011;2462;51.456;7.248;2022-10-16T15:07:52;2.63;;;1.00;;
2934;SDS011;2462;51.456;7.248;2022-10-16T15:10:19;3.53;;;1.40;;
2934;SDS011;2462;51.456;7.248;2022-10-16T15:12:50;2.67;;;1.00;;
2934;SDS011;2462;51.456;7.248;2022-10-16T15:17:48;2.40;;;1.10;;
2934;SDS011;2462;51.456;7.248;2022-10-16T15:20:17;2.00;;;1.10;;
2934;SDS011;2462;51.456;7.248;2022-10-16T15:22:43;3.80;;;1.80;;
2934;SDS011;2462;51.456;7.248;2022-10-16T15:27:55;1.50;;;1.08;;
2934;SDS011;2462;51.456;7.248;2022-10-16T15:30:20;2.20;;;1.10;;
2934;SDS011;2462;51.456;7.248;2022-10-16T15:32:46;3.80;;;1.10;;
2934;SDS011;2462;51.456;7.248;2022-10-16T15:35:11;3.08;;;1.30;;
2934;SDS011;2462;51.456;7.248;2022-10-16T15:37:37;2.70;;;1.30;;
2934;SDS011;2462;51.456;7.248;2022-10-16T15:40:02;1.67;;;1.20;;
2934;SDS011;2462;51.456;7.248;2022-10-16T15:42:28;2.67;;;1.30;;
2934;SDS011;2462;51.456;7.248;2022-10-16T15:44:54;2.10;;;1.20;;
2934;SDS011;2462;51.456;7.248;2022-10-16T15:47:19;2.25;;;1.50;;
2934;SDS011;2462;51.456;7.248;2022-10-16T15:49:45;2.78;;;1.30;;
2934;SDS011;2462;51.456;7.248;2022-10-16T15:52:11;2.30;;;1.30;;
2934;SDS011;2462;51.456;7.248;2022-10-16T15:54:36;2.60;;;1.50;;
2934;SDS011;2462;51.456;7.248;2022-10-16T15:57:02;3.27;;;1.70;;
2934;SDS011;2462;51.456;7.248;2022-10-16T15:59:27;2.60;;;1.80;;
2934;SDS011;2462;51.456;7.248;2022-10-16T16:01:53;3.20;;;1.87;;
2934;SDS011;2462;51.456;7.248;2022-10-16T16:04:19;3.75;;;1.70;;
2934;SDS011;2462;51.456;7.248;2022-10-16T16:06:44;3.30;;;1.50;;
2934;SDS011;2462;51.456;7.248;2022-10-16T16:09:11;3.80;;;1.48;;
2934;SDS011;2462;51.456;7.248;2022-10-16T16:11:38;2.83;;;1.80;;
2934;SDS011;2462;51.456;7.248;2022-10-16T16:14:04;3.05;;;1.88;;
2934;SDS011;2462;51.456;7.248;2022-10-16T16:16:31;4.25;;;1.73;;
2934;SDS011;2462;51.456;7.248;2022-10-16T16:21:29;3.10;;;2.20;;
2934;SDS011;2462;51.456;7.248;2022-10-16T16:23:55;3.40;;;1.80;;
2934;SDS011;2462;51.456;7.248;2022-10-16T16:26:22;3.17;;;1.80;;
2934;SDS011;2462;51.456;7.248;2022-10-16T16:28:51;3.23;;;2.00;;
2934;SDS011;2462;51.456;7.248;2022-10-16T16:31:17;5.60;;;2.00;;
2934;SDS011;2462;51.456;7.248;2022-10-16T16:33:43;4.10;;;2.10;;
2934;SDS011;2462;51.456;7.248;2022-10-16T16:36:08;2.70;;;1.80;;
2934;SDS011;2462;51.456;7.248;2022-10-16T16:38:34;5.03;;;2.40;;
2934;SDS011;2462;51.456;7.248;2022-10-16T16:41:10;2.80;;;1.95;;
2934;SDS011;2462;51.456;7.248;2022-10-16T16:43:36;2.95;;;2.00;;
2934;SDS011;2462;51.456;7.248;2022-10-16T16:46:02;4.83;;;1.97;;
2934;SDS011;2462;51.456;7.248;2022-10-16T16:48:27;2.90;;;2.10;;
2934;SDS011;2462;51.456;7.248;2022-10-16T16:50:53;2.50;;;2.13;;
2934;SDS011;2462;51.456;7.248;2022-10-16T16:53:18;3.55;;;2.15;;
2934;SDS011;2462;51.456;7.248;2022-10-16T16:55:44;4.20;;;2.70;;
2934;SDS011;2462;51.456;7.248;2022-10-16T16:58:09;4.20;;;2.40;;
2934;SDS011;2462;51.456;7.248;2022-10-16T17:00:35;5.97;;;3.13;;
2934;SDS011;2462;51.456;7.248;2022-10-16T17:03:00;4.40;;;3.10;;
2934;SDS011;2462;51.456;7.248;2022-10-16T17:05:26;6.00;;;2.80;;
2934;SDS011;2462;51.456;7.248;2022-10-16T17:07:51;5.63;;;2.70;;
2934;SDS011;2462;51.456;7.248;2022-10-16T17:10:17;7.07;;;3.67;;
2934;SDS011;2462;51.456;7.248;2022-10-16T17:12:42;6.50;;;4.90;;
2934;SDS011;2462;51.456;7.248;2022-10-16T17:15:08;8.83;;;6.30;;
2934;SDS011;2462;51.456;7.248;2022-10-16T17:17:34;10.25;;;7.57;;
2934;SDS011;2462;51.456;7.248;2022-10-16T17:19:59;9.07;;;7.40;;
2934;SDS011;2462;51.456;7.248;2022-10-16T17:22:25;10.55;;;7.57;;
2934;SDS011;2462;51.456;7.248;2022-10-16T17:24:50;7.20;;;6.50;;
2934;SDS011;2462;51.456;7.248;2022-10-16T17:27:17;8.02;;;6.00;;
2934;SDS011;2462;51.456;7.248;2022-10-16T17:29:43;5.93;;;5.20;;
2934;SDS011;2462;51.456;7.248;2022-10-16T17:32:09;6.38;;;4.97;;
2934;SDS011;2462;51.456;7.248;2022-10-16T17:34:35;7.43;;;4.70;;
2934;SDS011;2462;51.456;7.248;2022-10-16T17:37:01;5.60;;;4.75;;
2934;SDS011;2462;51.456;7.248;2022-10-16T17:39:27;4.70;;;3.90;;
2934;SDS011;2462;51.456;7.248;2022-10-16T17:41:53;4.00;;;3.30;;
2934;SDS011;2462;51.456;7.248;2022-10-16T17:44:19;5.30;;;3.20;;
2934;SDS011;2462;51.456;7.248;2022-10-16T17:46:46;4.68;;;3.30;;
2934;SDS011;2462;51.456;7.248;2022-10-16T17:49:15;5.05;;;2.80;;
2934;SDS011;2462;51.456;7.248;2022-10-16T17:51:41;4.18;;;2.80;;
2934;SDS011;2462;51.456;7.248;2022-10-16T17:54:07;4.47;;;2.70;;